KMVN/MVN METAR and TAF weather

Enter ICAO airport designator
Station Type Date Time Source
KMVN METAR 2019/10/23 20:56 UTC NOAA

KMVN 232056Z AUTO 19016G21KT 10SM CLR 20/04 A3002 RMK AO2 SLP170 T02000044 56016


Station Type Date Time Source
KMVN Decoded METAR 2019/10/23 20:56 UTC NOAA

Mount Vernon, Mount Vernon Airport, IL, United States (KMVN) 38-19N 088-52W
Oct 23, 2019 - 04:56 PM EDT / 2019.10.23 2056 UTC
Wind: from the S (190 degrees) at 18 MPH (16 KT) gusting to 24 MPH (21 KT):0
Visibility: 10 mile(s):0
Sky conditions: clear
Temperature: 68.0 F (20.0 C)
Dew Point: 39.9 F (4.4 C)
Relative Humidity: 35%
Pressure (altimeter): 30.02 in. Hg (1016 hPa)
Pressure tendency: 0.05 inches (1.6 hPa) lower than three hours ago
ob: KMVN 232056Z AUTO 19016G21KT 10SM CLR 20/04 A3002 RMK AO2 SLP170 T02000044 56016
cycle: 21

Station Type Date Time Source
KMVN TAF 2019/10/23 18:21 UTC NOAA

TAF KMVN 231720Z 2318/2418 20012KT P6SM SCT250
TEMPO 2318/2322 20016G25KT
FM232300 20010KT P6SM SCT100 BKN250
FM240300 20007KT P6SM SCT060 BKN100
FM241500 VRB04KT P6SM BKN060

Example: see airport list